Rosati, Missouri
Current Conditions -  °F | °C
As of 2:53 AM on Monday 24 Nov 2014 (Local Time) from KVIH Reporting Station
Moderate Rain Moderate Rain  
Wind Chill: 27°   Ceiling: 700
Heat Index: 36°   Visibility: 6mi
Dew Point: 34°   Wind: 15mph
Humidity: 93%   Direction: 280°W
Pressure: 29.45"   Gusts: 29mph
Location:  37.9936°N, 91.5964°W
Report Text: KVIH 240853Z AUTO 28013G25KT 6SM RA BR BKN007 OVC011 02/01 A2945 RMK AO2 PK WND 30031/0754 SLP974 P0007 60026 T00220011 53060
Loading
Personal Weather Stations






























Interactive Weather Map New forecast layout! Learn more

10-Day Weather Forecast

Advertisements
Track Severe Weather on mobile